Time;durP1;ratioP1;P1;durP2;ratioP2;P2;SDS_P1;SDS_P2;PMS_P1;PMS_P2;Temp;Humidity;BMP_temperature;BMP_pressure;BME280_temperature;BME280_humidity;BME280_pressure;Samples;Min_cycle;Max_cycle;Signal;HPM_P1;HPM_P2
2023/10/19 00:00:43;;;;;;;;;;;;;;;9.86;100.00;99223.22;5028022;28;1980;-78
2023/10/19 00:03:09;;;;;;;;;;;;;;;9.88;100.00;99221.31;5024167;28;1151;-78
2023/10/19 00:05:35;;;;;;;;;;;;;;;9.89;100.00;99215.16;5027923;28;1267;-78
2023/10/19 00:08:05;;;;;;;;;;;;;;;9.90;100.00;99211.59;5029622;28;1381;-79
2023/10/19 00:10:34;;;;;;;;;;;;;;;9.91;100.00;99207.22;5022595;28;1212;-79
2023/10/19 00:13:03;;;;;;;;;;;;;;;9.93;100.00;99216.47;5038941;28;1153;-79
2023/10/19 00:15:31;;;;;;;;;;;;;;;9.94;100.00;99218.09;5032754;28;1168;-78
2023/10/19 00:17:59;;;;;;;;;;;;;;;9.95;100.00;99219.69;5029287;28;1246;-78
2023/10/19 00:20:35;;;;;;;;;;;;;;;9.96;100.00;99216.13;5029697;28;1954;-78
2023/10/19 00:23:05;;;;;;;;;;;;;;;9.97;100.00;99217.75;5025015;28;1253;-79
2023/10/19 00:25:31;;;;;;;;;;;;;;;9.99;100.00;99221.00;5027537;28;1375;-79
2023/10/19 00:27:56;;;;;;;;;;;;;;;10.01;100.00;99213.88;5026458;28;1226;-79
2023/10/19 00:30:23;;;;;;;;;;;;;;;10.03;100.00;99217.09;5022191;28;1231;-79
2023/10/19 00:32:48;;;;;;;;;;;;;;;10.03;100.00;99211.91;5026375;28;1330;-79
2023/10/19 00:35:34;;;;;;;;;;;;;;;10.02;100.00;99225.84;5021356;28;1212;-79
2023/10/19 00:38:21;;;;;;;;;;;;;;;10.02;100.00;99219.84;5024236;28;1238;-79
2023/10/19 00:40:53;;;;;;;;;;;;;;;10.02;100.00;99231.03;5029794;28;1894;-79
2023/10/19 00:43:28;;;;;;;;;;;;;;;10.05;100.00;99225.53;5023273;28;1219;-79
2023/10/19 00:45:54;;;;;;;;;;;;;;;10.06;100.00;99227.16;5033728;28;1109;-79
2023/10/19 00:48:23;;;;;;;;;;;;;;;10.09;100.00;99221.66;5022159;28;1362;-80
2023/10/19 00:50:52;;;;;;;;;;;;;;;10.10;100.00;99212.91;5021384;28;905;-78
2023/10/19 00:53:18;;;;;;;;;;;;;;;10.11;100.00;99204.16;5027735;28;1078;-78
2023/10/19 00:55:45;;;;;;;;;;;;;;;10.13;100.00;99195.41;5026797;28;1212;-79
2023/10/19 00:58:14;;;;;;;;;;;;;;;10.16;100.00;99197.69;5033201;28;1006;-79
2023/10/19 01:00:43;;;;;;;;;;;;;;;10.18;100.00;99193.97;5022913;28;1953;-78
2023/10/19 01:03:10;;;;;;;;;;;;;;;10.21;100.00;99192.84;5026637;28;1240;-79
2023/10/19 01:05:38;;;;;;;;;;;;;;;10.23;100.00;99185.72;5023518;28;1306;-78
2023/10/19 01:08:14;;;;;;;;;;;;;;;10.25;100.00;99188.97;5022315;28;1167;-78
2023/10/19 01:10:40;;;;;;;;;;;;;;;10.25;100.00;99179.41;5026682;28;1210;-78
2023/10/19 01:13:05;;;;;;;;;;;;;;;10.27;100.00;99181.84;5030403;28;1285;-79
2023/10/19 01:15:36;;;;;;;;;;;;;;;10.27;100.00;99171.50;5039015;28;1151;-77
2023/10/19 01:18:02;;;;;;;;;;;;;;;10.30;100.00;99184.09;5050481;28;1065;-79
2023/10/19 01:25:58;;;;;;;;;;;;;;;10.37;100.00;99188.47;5042619;28;1152;-79
2023/10/19 01:28:42;;;;;;;;;;;;;;;10.42;100.00;99182.00;5024077;28;1393;-79
2023/10/19 01:31:08;;;;;;;;;;;;;;;10.45;100.00;99185.06;5028649;28;1101;-78
2023/10/19 01:33:34;;;;;;;;;;;;;;;10.47;100.00;99188.28;5019476;28;1240;-79
2023/10/19 01:39:00;;;;;;;;;;;;;;;10.59;100.00;99186.97;5014511;28;1334;-79
2023/10/19 01:41:26;;;;;;;;;;;;;;;10.63;100.00;99177.91;5029856;28;1906;-78
2023/10/19 01:43:55;;;;;;;;;;;;;;;10.72;100.00;99170.09;5027858;28;1668;-78
2023/10/19 01:46:21;;;;;;;;;;;;;;;10.77;100.00;99167.81;5027867;28;1252;-80
2023/10/19 01:48:49;;;;;;;;;;;;;;;10.82;100.00;99162.94;5025351;28;1193;-78
2023/10/19 01:51:14;;;;;;;;;;;;;;;10.87;100.00;99156.28;5024351;28;1279;-79
2023/10/19 01:53:47;;;;;;;;;;;;;;;10.93;100.00;99152.19;5025652;28;1384;-79
2023/10/19 01:56:12;;;;;;;;;;;;;;;10.97;100.00;99152.69;5018864;28;1191;-79
2023/10/19 01:58:39;;;;;;;;;;;;;;;11.03;100.00;99158.00;5030200;28;1329;-79
2023/10/19 02:01:20;;;;;;;;;;;;;;;11.07;100.00;99159.28;5024418;28;1902;-80
2023/10/19 02:03:45;;;;;;;;;;;;;;;11.12;100.00;99156.97;5036734;28;1368;-79
2023/10/19 02:06:26;;;;;;;;;;;;;;;11.15;100.00;99151.44;5025635;28;1201;-79
2023/10/19 02:08:56;;;;;;;;;;;;;;;11.20;100.00;99157.94;5025074;28;1090;-78
2023/10/19 02:11:22;;;;;;;;;;;;;;;11.25;100.00;99166.00;5024990;28;1196;-79
2023/10/19 02:13:49;;;;;;;;;;;;;;;11.28;100.00;99165.66;5022176;28;1276;-79
2023/10/19 02:16:16;;;;;;;;;;;;;;;11.31;100.00;99152.34;5022120;28;1230;-79
2023/10/19 02:18:44;;;;;;;;;;;;;;;11.36;100.00;99150.06;5019704;28;1378;-79
2023/10/19 02:21:11;;;;;;;;;;;;;;;11.40;100.00;99164.28;5020503;28;1890;-81
2023/10/19 02:23:37;;;;;;;;;;;;;;;11.41;100.00;99161.53;5026858;28;1215;-79
2023/10/19 02:26:03;;;;;;;;;;;;;;;11.44;100.00;99150.00;5025731;28;1254;-79
2023/10/19 02:28:31;;;;;;;;;;;;;;;11.49;100.00;99160.69;5018910;28;1283;-79
2023/10/19 02:30:57;;;;;;;;;;;;;;;11.53;100.00;99167.16;5031428;28;1334;-80
2023/10/19 02:33:22;;;;;;;;;;;;;;;11.57;100.00;99160.63;5031632;28;1156;-80
2023/10/19 02:35:47;;;;;;;;;;;;;;;11.58;100.00;99151.84;5024052;28;1227;-79
2023/10/19 02:38:13;;;;;;;;;;;;;;;11.62;100.00;99147.94;5027231;28;1493;-80
2023/10/19 02:40:38;;;;;;;;;;;;;;;11.66;100.00;99159.59;5029247;28;2009;-79
2023/10/19 02:43:04;;;;;;;;;;;;;;;11.69;100.00;99159.22;5023817;28;1213;-79
2023/10/19 02:45:30;;;;;;;;;;;;;;;11.73;100.00;99153.69;5031595;28;1072;-79
2023/10/19 02:47:57;;;;;;;;;;;;;;;11.76;100.00;99163.75;5026702;28;999;-80
2023/10/19 02:50:23;;;;;;;;;;;;;;;11.78;100.00;99152.19;5024084;28;1545;-79
2023/10/19 02:52:48;;;;;;;;;;;;;;;11.80;100.00;99155.41;5026603;28;1155;-78
2023/10/19 02:55:16;;;;;;;;;;;;;;;11.83;100.00;99159.50;5025160;28;1162;-80
2023/10/19 02:57:41;;;;;;;;;;;;;;;11.85;100.00;99155.75;5029061;28;1168;-79
2023/10/19 03:00:20;;;;;;;;;;;;;;;11.89;100.00;99164.00;5026219;28;1973;-79
2023/10/19 03:02:45;;;;;;;;;;;;;;;11.91;100.00;99162.03;5032963;28;1135;-79
2023/10/19 03:05:17;;;;;;;;;;;;;;;11.96;100.00;99149.34;5030015;28;1310;-79
2023/10/19 03:07:46;;;;;;;;;;;;;;;12.04;100.00;99146.66;5031070;28;1311;-79
2023/10/19 03:10:25;;;;;;;;;;;;;;;12.09;100.00;99144.34;5029550;28;1211;-79
2023/10/19 03:12:51;;;;;;;;;;;;;;;12.13;100.00;99135.22;5030041;28;1068;-79
2023/10/19 03:15:20;;;;;;;;;;;;;;;12.17;100.00;99141.69;5030347;28;1271;-78
2023/10/19 03:17:45;;;;;;;;;;;;;;;12.21;100.00;99134.31;5015936;28;1252;-79
2023/10/19 03:20:11;;;;;;;;;;;;;;;12.23;100.00;99135.78;5023644;28;1890;-79
2023/10/19 03:22:38;;;;;;;;;;;;;;;12.27;100.00;99135.41;5030032;28;1007;-79
2023/10/19 03:25:48;;;;;;;;;;;;;;;12.30;100.00;99135.06;5027588;28;1326;-78
2023/10/19 03:27:52;;;;;;;;;;;;;;;12.33;100.00;99139.91;5026979;28;1200;-78
2023/10/19 03:30:20;;;;;;;;;;;;;;;12.36;100.00;99140.34;5026996;28;1199;-78
2023/10/19 03:32:45;;;;;;;;;;;;;;;12.39;100.00;99139.22;5033981;28;1497;-79
2023/10/19 03:35:15;;;;;;;;;;;;;;;12.41;100.00;99143.22;5022704;28;1203;-79
2023/10/19 03:37:41;;;;;;;;;;;;;;;12.44;100.00;99137.69;5027654;28;1283;-79
2023/10/19 03:40:08;;;;;;;;;;;;;;;12.47;100.00;99147.72;5027074;28;1906;-79
2023/10/19 03:42:39;;;;;;;;;;;;;;;12.49;100.00;99131.94;5027198;28;1563;-79
2023/10/19 03:45:12;;;;;;;;;;;;;;;12.49;100.00;99130.13;5025516;28;1295;-79
2023/10/19 03:47:38;;;;;;;;;;;;;;;12.50;100.00;99130.94;5032508;28;1240;-78
2023/10/19 03:50:07;;;;;;;;;;;;;;;12.51;100.00;99127.38;5032084;28;1287;-78
2023/10/19 03:52:37;;;;;;;;;;;;;;;12.52;100.00;99126.38;5034070;28;1157;-78
2023/10/19 03:55:03;;;;;;;;;;;;;;;12.52;100.00;99121.19;5022048;28;1258;-79
2023/10/19 03:57:30;;;;;;;;;;;;;;;12.53;100.00;99122.78;5024308;28;1161;-79
2023/10/19 03:59:59;;;;;;;;;;;;;;;12.54;100.00;99116.59;5029919;28;1528;-79
2023/10/19 04:02:29;;;;;;;;;;;;;;;12.54;100.00;99116.59;5026986;28;1521;-78
2023/10/19 04:04:55;;;;;;;;;;;;;;;12.54;100.00;99111.41;5023393;28;1148;-78
2023/10/19 04:07:21;;;;;;;;;;;;;;;12.58;100.00;99117.88;5028816;28;1228;-79
2023/10/19 04:10:29;;;;;;;;;;;;;;;12.61;100.00;99116.69;5022060;28;1359;-79
2023/10/19 04:12:36;;;;;;;;;;;;;;;12.63;100.00;99110.34;5028899;28;1283;-79
2023/10/19 04:15:10;;;;;;;;;;;;;;;12.65;100.00;99118.75;5018559;28;1652;-79
2023/10/19 04:17:36;;;;;;;;;;;;;;;12.65;100.00;99108.34;5024978;28;1335;-79
2023/10/19 04:20:09;;;;;;;;;;;;;;;12.66;100.00;99109.16;5030503;28;1957;-78
2023/10/19 04:22:34;;;;;;;;;;;;;;;12.66;100.00;99104.75;5030342;28;1367;-78
2023/10/19 04:25:01;;;;;;;;;;;;;;;12.66;100.00;99107.34;5029902;28;1224;-79
2023/10/19 04:27:26;;;;;;;;;;;;;;;12.66;100.00;99104.75;5032369;28;1120;-78
2023/10/19 04:29:52;;;;;;;;;;;;;;;12.67;100.00;99111.59;5029568;28;1288;-79
2023/10/19 04:32:25;;;;;;;;;;;;;;;12.66;100.00;99116.97;5031383;28;1267;-78
2023/10/19 04:34:50;;;;;;;;;;;;;;;12.64;100.00;99111.94;5020092;28;1259;-79
2023/10/19 04:37:18;;;;;;;;;;;;;;;12.63;100.00;99115.53;5029225;28;1256;-79
2023/10/19 04:39:44;;;;;;;;;;;;;;;12.61;100.00;99107.09;5026078;28;1334;-78
2023/10/19 04:42:09;;;;;;;;;;;;;;;12.59;100.00;99109.06;5028536;28;1906;-78
2023/10/19 04:44:34;;;;;;;;;;;;;;;12.57;100.00;99113.66;5021772;28;987;-79
2023/10/19 04:46:59;;;;;;;;;;;;;;;12.54;100.00;99105.41;5025274;28;1239;-78
2023/10/19 04:49:25;;;;;;;;;;;;;;;12.51;100.00;99121.38;5029542;28;1210;-78
2023/10/19 04:51:50;;;;;;;;;;;;;;;12.50;100.00;99117.94;5025655;28;1192;-78
2023/10/19 04:54:15;;;;;;;;;;;;;;;12.48;100.00;99117.31;5030712;28;1073;-78
2023/10/19 04:56:40;;;;;;;;;;;;;;;12.46;100.00;99124.50;5025045;28;1207;-78
2023/10/19 04:59:06;;;;;;;;;;;;;;;12.45;100.00;99122.91;5030373;28;1181;-78
2023/10/19 05:01:33;;;;;;;;;;;;;;;12.43;100.00;99124.84;5020897;28;1914;-80
2023/10/19 05:03:58;;;;;;;;;;;;;;;12.40;100.00;99120.03;5024660;28;956;-78
2023/10/19 05:06:24;;;;;;;;;;;;;;;12.38;100.00;99127.16;5036895;28;1323;-79
2023/10/19 05:08:49;;;;;;;;;;;;;;;12.35;100.00;99111.94;5022501;28;1187;-79
2023/10/19 05:11:14;;;;;;;;;;;;;;;12.33;100.00;99119.94;5026954;28;1114;-79
2023/10/19 05:13:39;;;;;;;;;;;;;;;12.30;100.00;99114.28;5028628;28;1274;-79
2023/10/19 05:16:05;;;;;;;;;;;;;;;12.27;100.00;99119.81;5028394;28;1229;-79
2023/10/19 05:18:30;;;;;;;;;;;;;;;12.26;100.00;99123.41;5021726;28;1430;-79
2023/10/19 05:20:56;;;;;;;;;;;;;;;12.24;100.00;99128.78;5022215;28;1894;-79
2023/10/19 05:23:25;;;;;;;;;;;;;;;12.23;100.00;99127.16;5026498;28;1390;-78
2023/10/19 05:25:52;;;;;;;;;;;;;;;12.22;100.00;99128.97;5025929;28;1271;-78
2023/10/19 05:28:18;;;;;;;;;;;;;;;12.21;100.00;99132.56;5017689;28;1472;-78
2023/10/19 05:30:44;;;;;;;;;;;;;;;12.20;100.00;99125.72;5022359;28;1403;-78
2023/10/19 05:33:09;;;;;;;;;;;;;;;12.20;100.00;99130.91;5021678;28;1611;-78
2023/10/19 05:35:39;;;;;;;;;;;;;;;12.22;100.00;99133.38;5018465;28;1528;-79
2023/10/19 05:38:05;;;;;;;;;;;;;;;12.21;100.00;99137.75;5024692;28;1687;-80
2023/10/19 05:40:30;;;;;;;;;;;;;;;12.21;100.00;99127.34;5028289;28;1961;-79
2023/10/19 05:42:57;;;;;;;;;;;;;;;12.22;100.00;99131.56;5024567;28;1235;-79
2023/10/19 05:45:22;;;;;;;;;;;;;;;12.22;100.00;99134.16;5030020;28;1263;-79
2023/10/19 05:47:47;;;;;;;;;;;;;;;12.25;100.00;99132.19;5033288;28;1234;-79
2023/10/19 05:50:14;;;;;;;;;;;;;;;12.25;100.00;99140.78;5026811;28;1261;-79
2023/10/19 05:52:40;;;;;;;;;;;;;;;12.27;100.00;99135.41;5036924;28;1356;-78
2023/10/19 05:55:06;;;;;;;;;;;;;;;12.28;100.00;99129.25;5028337;28;1202;-78
2023/10/19 05:57:31;;;;;;;;;;;;;;;12.28;100.00;99134.44;5038682;28;1270;-78
2023/10/19 05:59:56;;;;;;;;;;;;;;;12.28;100.00;99137.03;5031104;28;1232;-79
2023/10/19 06:02:22;;;;;;;;;;;;;;;12.30;100.00;99140.25;5021601;28;1890;-78
2023/10/19 06:04:47;;;;;;;;;;;;;;;12.32;100.00;99144.28;5016723;28;1211;-79
2023/10/19 06:07:12;;;;;;;;;;;;;;;12.33;100.00;99139.91;5022493;28;1219;-79
2023/10/19 06:09:38;;;;;;;;;;;;;;;12.33;100.00;99145.09;5018803;28;1551;-79
2023/10/19 06:12:04;;;;;;;;;;;;;;;12.36;100.00;99149.94;5023155;28;1212;-79
2023/10/19 06:14:30;;;;;;;;;;;;;;;12.37;100.00;99147.16;5022493;28;1379;-79
2023/10/19 06:16:55;;;;;;;;;;;;;;;12.38;100.00;99147.97;5019089;28;1174;-78
2023/10/19 06:19:21;;;;;;;;;;;;;;;12.40;100.00;99146.03;5022774;28;1010;-79
2023/10/19 06:21:46;;;;;;;;;;;;;;;12.42;100.00;99154.44;5023692;28;1906;-79
2023/10/19 06:24:14;;;;;;;;;;;;;;;12.43;100.00;99156.03;5024247;28;1548;-79
2023/10/19 06:26:41;;;;;;;;;;;;;;;12.44;100.00;99158.50;5020436;28;1167;-80
2023/10/19 06:29:06;;;;;;;;;;;;;;;12.46;100.00;99164.31;5023324;28;1122;-79
2023/10/19 06:31:31;;;;;;;;;;;;;;;12.48;100.00;99158.94;5025569;28;1118;-79
2023/10/19 06:34:00;;;;;;;;;;;;;;;12.48;100.00;99159.72;5025894;28;1196;-79
2023/10/19 06:36:25;;;;;;;;;;;;;;;12.51;100.00;99153.38;5022677;28;1240;-79
2023/10/19 06:38:50;;;;;;;;;;;;;;;12.53;100.00;99151.41;5026690;28;1308;-79
2023/10/19 06:41:18;;;;;;;;;;;;;;;12.54;100.00;99153.00;5033799;28;1893;-79
2023/10/19 06:43:43;;;;;;;;;;;;;;;12.55;100.00;99159.00;5032119;28;1246;-79
2023/10/19 06:46:11;;;;;;;;;;;;;;;12.57;100.00;99163.06;5033549;28;1518;-79
2023/10/19 06:48:36;;;;;;;;;;;;;;;12.57;100.00;99163.06;5030617;28;1199;-78
2023/10/19 06:51:01;;;;;;;;;;;;;;;12.59;100.00;99163.69;5026217;28;1500;-79
2023/10/19 06:53:27;;;;;;;;;;;;;;;12.61;100.00;99164.31;5031022;28;1231;-79
2023/10/19 06:55:52;;;;;;;;;;;;;;;12.63;100.00;99172.75;5027658;28;1260;-78
2023/10/19 06:58:21;;;;;;;;;;;;;;;12.63;100.00;99172.75;5032240;28;1293;-79
2023/10/19 07:00:56;;;;;;;;;;;;;;;12.65;100.00;99175.97;5023407;28;1902;-79
2023/10/19 07:03:21;;;;;;;;;;;;;;;12.66;100.00;99180.19;5022316;28;1290;-79
2023/10/19 07:05:46;;;;;;;;;;;;;;;12.67;100.00;99181.81;5028793;28;1191;-79
2023/10/19 07:08:11;;;;;;;;;;;;;;;12.68;100.00;99180.84;5029917;28;1544;-78
2023/10/19 07:10:36;;;;;;;;;;;;;;;12.70;100.00;99184.06;5027392;28;1302;-79
2023/10/19 07:13:03;;;;;;;;;;;;;;;12.72;100.00;99194.28;5027367;28;1144;-79
2023/10/19 07:15:29;;;;;;;;;;;;;;;12.73;100.00;99191.50;5027989;28;1180;-79
2023/10/19 07:17:54;;;;;;;;;;;;;;;12.75;100.00;99186.13;5037195;28;1435;-79
2023/10/19 07:20:31;;;;;;;;;;;;;;;12.77;100.00;99192.75;5031096;28;2031;-79
2023/10/19 07:23:03;;;;;;;;;;;;;;;12.80;100.00;99198.59;5022127;28;1292;-79
2023/10/19 07:25:29;;;;;;;;;;;;;;;12.81;100.00;99200.22;5029352;28;1151;-79
2023/10/19 07:27:54;;;;;;;;;;;;;;;12.83;100.00;99199.03;5027983;28;1617;-79
2023/10/19 07:30:26;;;;;;;;;;;;;;;12.85;100.00;99201.47;5042058;28;1400;-78
2023/10/19 07:32:58;;;;;;;;;;;;;;;12.85;100.00;99202.28;5024242;28;1437;-78
2023/10/19 07:35:25;;;;;;;;;;;;;;;12.87;100.00;99202.91;5028437;28;1305;-78
2023/10/19 07:37:51;;;;;;;;;;;;;;;12.88;100.00;99201.09;5030627;28;1255;-80
2023/10/19 07:40:17;;;;;;;;;;;;;;;12.89;100.00;99202.72;5024662;28;1906;-78
2023/10/19 07:42:43;;;;;;;;;;;;;;;12.90;100.00;99204.31;5024780;28;1228;-79
2023/10/19 07:45:11;;;;;;;;;;;;;;;12.91;100.00;99205.97;5020098;28;1572;-78
2023/10/19 07:47:36;;;;;;;;;;;;;;;12.93;100.00;99203.97;5032561;28;1068;-79
2023/10/19 07:50:03;;;;;;;;;;;;;;;12.94;100.00;99205.59;5029287;28;1236;-79
2023/10/19 07:52:28;;;;;;;;;;;;;;;12.95;100.00;99199.38;5026002;28;1320;-79
2023/10/19 07:54:53;;;;;;;;;;;;;;;12.94;100.00;99201.19;5026743;28;1228;-79
2023/10/19 07:57:20;;;;;;;;;;;;;;;12.96;100.00;99203.59;5026680;28;1101;-78
2023/10/19 07:59:45;;;;;;;;;;;;;;;12.96;100.00;99196.63;5028246;28;1195;-79
2023/10/19 08:02:10;;;;;;;;;;;;;;;12.96;100.00;99196.63;5023526;28;1890;-79
2023/10/19 08:04:36;;;;;;;;;;;;;;;12.97;100.00;99189.63;5021679;28;1664;-78
2023/10/19 08:07:01;;;;;;;;;;;;;;;12.98;100.00;99191.22;5025268;28;1212;-79
2023/10/19 08:09:31;;;;;;;;;;;;;;;12.99;100.00;99193.66;5026609;28;1363;-79
2023/10/19 08:11:58;;;;;;;;;;;;;;;13.00;100.00;99203.06;5023494;28;1431;-78
2023/10/19 08:14:24;;;;;;;;;;;;;;;13.02;100.00;99197.69;5027206;28;1223;-78
2023/10/19 08:16:50;;;;;;;;;;;;;;;13.02;100.00;99198.50;5024305;28;1356;-79
2023/10/19 08:19:16;;;;;;;;;;;;;;;13.04;100.00;99200.91;5030563;28;1016;-79
2023/10/19 08:21:41;;;;;;;;;;;;;;;13.06;100.00;99193.72;5026937;28;1898;-78
2023/10/19 08:24:06;;;;;;;;;;;;;;;13.08;100.00;99191.78;5023941;28;1188;-79
2023/10/19 08:26:31;;;;;;;;;;;;;;;13.10;100.00;99189.78;5019862;28;1498;-79
2023/10/19 08:28:58;;;;;;;;;;;;;;;13.11;100.00;99188.78;5023121;28;1432;-79
2023/10/19 08:31:24;;;;;;;;;;;;;;;13.15;100.00;99181.44;5026872;28;1232;-79
2023/10/19 08:33:50;;;;;;;;;;;;;;;13.18;100.00;99170.63;5024693;28;1489;-79
2023/10/19 08:36:19;;;;;;;;;;;;;;;13.20;100.00;99182.50;5025204;28;1358;-79
2023/10/19 08:38:44;;;;;;;;;;;;;;;13.24;100.00;99181.16;5025059;28;1168;-79
2023/10/19 08:41:10;;;;;;;;;;;;;;;13.26;100.00;99174.00;5019291;28;1894;-78
2023/10/19 08:43:39;;;;;;;;;;;;;;;13.30;100.00;99179.63;5030842;28;1193;-78
2023/10/19 08:46:05;;;;;;;;;;;;;;;13.34;100.00;99180.06;5024502;28;1318;-79
2023/10/19 08:48:34;;;;;;;;;;;;;;;13.36;100.00;99183.28;5024559;28;1349;-79
2023/10/19 08:51:00;;;;;;;;;;;;;;;13.38;100.00;99181.34;5021856;28;1160;-80
2023/10/19 08:53:25;;;;;;;;;;;;;;;13.41;100.00;99175.75;5025252;28;1149;-79
2023/10/19 08:55:54;;;;;;;;;;;;;;;13.43;100.00;99168.56;5023257;28;1298;-79
2023/10/19 08:58:20;;;;;;;;;;;;;;;13.46;100.00;99162.97;5018258;28;1227;-79
2023/10/19 09:00:53;;;;;;;;;;;;;;;13.51;100.00;99160.63;5028207;28;1890;-79
2023/10/19 09:03:19;;;;;;;;;;;;;;;13.57;100.00;99170.31;5031615;28;1247;-79
2023/10/19 09:05:47;;;;;;;;;;;;;;;13.64;100.00;99165.97;5023367;28;1557;-79
2023/10/19 09:08:16;;;;;;;;;;;;;;;13.70;100.00;99173.03;5030508;28;1234;-78
2023/10/19 09:10:43;;;;;;;;;;;;;;;13.74;100.00;99176.91;5030240;28;1219;-79
2023/10/19 09:13:10;;;;;;;;;;;;;;;13.78;100.00;99172.94;5042882;28;1081;-78
2023/10/19 09:15:35;;;;;;;;;;;;;;;13.86;100.00;99168.59;5046288;28;1307;-78
2023/10/19 09:18:17;;;;;;;;;;;;;;;13.95;100.00;99162.25;5049353;28;1272;-79
2023/10/19 09:20:52;;;;;;;;;;;;;;;14.10;100.00;99176.00;5051086;28;1867;-79
2023/10/19 09:23:17;;;;;;;;;;;;;;;14.23;100.00;99165.69;5050954;28;1299;-79
2023/10/19 09:25:42;;;;;;;;;;;;;;;14.35;100.00;99164.19;5053364;28;1121;-79
2023/10/19 09:28:10;;;;;;;;;;;;;;;14.46;100.00;99165.47;5054893;28;1153;-79
2023/10/19 09:30:36;;;;;;;;;;;;;;;14.55;100.00;99169.53;5031677;28;1183;-79
2023/10/19 09:33:02;;;;;;;;;;;;;;;14.64;100.00;99166.81;5023748;28;1280;-79
2023/10/19 09:35:27;;;;;;;;;;;;;;;14.72;100.00;99154.38;5032497;28;1229;-81
2023/10/19 09:37:54;;;;;;;;;;;;;;;14.81;100.00;99142.00;5025573;28;1224;-80
2023/10/19 09:40:19;;;;;;;;;;;;;;;14.91;100.00;99139.00;5015407;28;1965;-79
2023/10/19 09:42:48;;;;;;;;;;;;;;;15.02;100.00;99135.84;5024748;28;1338;-80
2023/10/19 09:45:18;;;;;;;;;;;;;;;15.08;100.00;99143.72;5017279;28;1037;-79
2023/10/19 09:47:48;;;;;;;;;;;;;;;15.14;100.00;99140.34;5018492;28;1225;-80
2023/10/19 09:50:13;;;;;;;;;;;;;;;15.22;100.00;99128.09;5018015;28;1564;-79
2023/10/19 09:52:39;;;;;;;;;;;;;;;15.26;100.00;99135.34;5018572;28;1693;-79
2023/10/19 09:55:08;;;;;;;;;;;;;;;15.30;100.00;99154.81;5017125;28;1489;-80
2023/10/19 09:57:50;;;;;;;;;;;;;;;15.37;100.00;99142.63;5020935;28;1225;-79
2023/10/19 10:00:23;;;;;;;;;;;;;;;15.48;100.00;99143.00;5021757;28;1890;-79
2023/10/19 10:02:48;;;;;;;;;;;;;;;15.54;100.00;99147.44;5021050;28;1710;-80
2023/10/19 10:05:32;;;;;;;;;;;;;;;15.57;100.00;99141.84;5018278;28;1714;-80
2023/10/19 10:08:21;;;;;;;;;;;;;;;15.55;100.00;99144.66;5023989;28;1386;-80
2023/10/19 10:10:50;;;;;;;;;;;;;;;15.61;100.00;99154.31;5019587;28;1194;-80
2023/10/19 10:13:26;;;;;;;;;;;;;;;15.65;100.00;99144.28;5018817;28;1278;-80
2023/10/19 10:15:53;;;;;;;;;;;;;;;15.66;100.00;99140.69;5026416;28;1255;-80
2023/10/19 10:18:18;;;;;;;;;;;;;;;15.65;100.00;99144.28;5022623;28;1263;-79
2023/10/19 10:20:43;;;;;;;;;;;;;;;15.65;100.00;99139.06;5028952;28;1918;-80
2023/10/19 10:23:16;;;;;;;;;;;;;;;15.65;100.00;99139.06;5025312;28;1627;-79
2023/10/19 10:25:41;;;;;;;;;;;;;;;15.64;100.00;99132.22;5026692;28;1188;-80
2023/10/19 10:28:09;;;;;;;;;;;;;;;15.63;100.00;99141.88;5026402;28;1370;-79
2023/10/19 10:30:34;;;;;;;;;;;;;;;15.64;100.00;99127.00;5032346;28;1398;-80
2023/10/19 10:32:59;;;;;;;;;;;;;;;15.65;100.00;99120.75;5025830;28;1269;-80
2023/10/19 10:35:38;;;;;;;;;;;;;;;15.65;100.00;99111.13;5022519;28;1526;-80
2023/10/19 10:38:13;;;;;;;;;;;;;;;15.66;100.00;99110.13;5028745;28;1450;-79
2023/10/19 10:40:45;;;;;;;;;;;;;;;15.68;100.00;99107.31;5019624;28;1899;-79
2023/10/19 10:43:11;;;;;;;;;;;;;;;15.71;100.00;99122.56;5021829;28;1143;-80
2023/10/19 10:45:36;;;;;;;;;;;;;;;15.71;100.00;99122.56;5018194;28;1357;-79
2023/10/19 10:48:02;;;;;;;;;;;;;;;15.72;100.00;99124.22;5021343;28;1208;-80
2023/10/19 10:50:28;;;;;;;;;;;;;;;15.73;100.00;99125.00;5016433;28;1546;-80
2023/10/19 10:52:57;;;;;;;;;;;;;;;15.76;100.00;99130.63;5016378;28;1193;-79
2023/10/19 10:55:22;;;;;;;;;;;;;;;15.82;100.00;99132.44;5024669;28;1232;-80
2023/10/19 10:57:49;;;;;;;;;;;;;;;15.90;100.00;99137.47;5025839;28;1144;-80
2023/10/19 11:00:18;;;;;;;;;;;;;;;16.00;100.00;99131.88;5021069;28;2235;-80
2023/10/19 11:02:49;;;;;;;;;;;;;;;16.06;100.00;99125.03;5017717;28;1017;-81
2023/10/19 11:05:15;;;;;;;;;;;;;;;16.08;100.00;99123.81;5017908;28;1200;-80
2023/10/19 11:07:41;;;;;;;;;;;;;;;16.13;100.00;99120.59;5017674;28;1217;-80
2023/10/19 11:10:09;;;;;;;;;;;;;;;16.22;100.00;99108.88;5016567;28;1338;-80
2023/10/19 11:12:35;;;;;;;;;;;;;;;16.33;100.00;99110.06;5023161;28;1197;-80
2023/10/19 11:15:00;;;;;;;;;;;;;;;16.40;100.00;99106.47;5023982;28;1221;-80
2023/10/19 11:17:32;;;;;;;;;;;;;;;16.49;100.00;99109.66;5029954;28;1154;-80
2023/10/19 11:19:57;;;;;;;;;;;;;;;16.56;100.00;99112.25;5022494;28;1263;-80
2023/10/19 11:22:26;;;;;;;;;;;;;;;16.60;100.00;99122.09;5024277;28;1988;-80
2023/10/19 11:24:54;;;;;;;;;;;;;;;16.66;100.00;99120.47;5022543;28;2800;-80
2023/10/19 11:27:26;;;;;;;;;;;;;;;16.71;100.00;99118.06;5044545;28;1438;-80
2023/10/19 11:29:56;;;;;;;;;;;;;;;16.76;100.00;99120.88;5031834;28;1487;-80
2023/10/19 11:32:21;;;;;;;;;;;;;;;16.76;100.00;99110.41;5025732;28;1227;-80
2023/10/19 11:34:47;;;;;;;;;;;;;;;16.76;100.00;99110.41;5021981;28;1146;-79
2023/10/19 11:37:13;;;;;;;;;;;;;;;16.72;100.00;99110.00;5026734;28;1298;-80
2023/10/19 11:39:38;;;;;;;;;;;;;;;16.68;100.00;99102.72;5022491;28;1196;-79
2023/10/19 11:42:04;;;;;;;;;;;;;;;16.62;100.00;99099.13;5026327;28;1926;-80
2023/10/19 11:44:29;;;;;;;;;;;;;;;16.64;100.00;99107.59;5021667;28;1038;-80
2023/10/19 11:46:55;;;;;;;;;;;;;;;16.61;100.00;99091.50;5024460;28;1113;-80
2023/10/19 11:49:20;;;;;;;;;;;;;;;16.59;100.00;99091.72;5027305;28;1171;-81
2023/10/19 11:51:46;;;;;;;;;;;;;;;16.58;100.00;99086.69;5016360;28;2792;-80
2023/10/19 11:54:12;;;;;;;;;;;;;;;16.53;100.00;99078.66;5020400;28;1073;-80
2023/10/19 11:56:37;;;;;;;;;;;;;;;16.50;100.00;99084.28;5020851;28;1619;-80
2023/10/19 11:59:02;;;;;;;;;;;;;;;16.48;100.00;99086.31;5018170;28;2925;-80
2023/10/19 12:01:29;;;;;;;;;;;;;;;16.48;100.00;99086.31;5019486;28;1930;-79
2023/10/19 12:03:54;;;;;;;;;;;;;;;16.48;100.00;99086.31;5024636;28;1091;-80
2023/10/19 12:06:20;;;;;;;;;;;;;;;16.48;100.00;99070.59;5023002;28;1320;-79
2023/10/19 12:08:45;;;;;;;;;;;;;;;16.46;100.00;99069.00;5025932;28;1098;-81
2023/10/19 12:11:18;;;;;;;;;;;;;;;16.48;100.00;99065.38;5019161;28;1110;-80
2023/10/19 12:13:44;;;;;;;;;;;;;;;16.50;100.00;99063.34;5016354;28;1172;-79
2023/10/19 12:16:12;;;;;;;;;;;;;;;16.49;100.00;99061.75;5020308;28;2892;-80
2023/10/19 12:18:38;;;;;;;;;;;;;;;16.49;100.00;99051.28;5018378;28;1076;-79
2023/10/19 12:21:07;;;;;;;;;;;;;;;16.48;100.00;99062.75;5022276;28;1894;-81
2023/10/19 12:23:32;;;;;;;;;;;;;;;16.44;100.00;99055.31;5020776;28;1260;-79
2023/10/19 12:25:58;;;;;;;;;;;;;;;16.43;100.00;99061.56;5020373;28;1239;-81
2023/10/19 12:28:24;;;;;;;;;;;;;;;16.43;100.00;99052.91;5024588;28;1950;-80
2023/10/19 12:30:50;;;;;;;;;;;;;;;16.42;100.00;99067.00;5033994;28;1279;-80
2023/10/19 12:33:15;;;;;;;;;;;;;;;16.40;100.00;99054.13;5028632;28;1329;-80
2023/10/19 12:35:45;;;;;;;;;;;;;;;16.39;100.00;99062.97;5041384;28;1243;-79
2023/10/19 12:38:15;;;;;;;;;;;;;;;16.37;100.00;99072.84;5044461;28;1381;-79
2023/10/19 12:40:41;;;;;;;;;;;;;;;16.35;100.00;99072.25;5042203;28;1957;-79
2023/10/19 12:43:07;;;;;;;;;;;;;;;16.33;100.00;99068.22;5044745;28;1174;-81
2023/10/19 12:45:36;;;;;;;;;;;;;;;16.30;100.00;99064.22;5042643;28;1331;-78
2023/10/19 12:48:02;;;;;;;;;;;;;;;16.25;100.00;99066.63;5044528;28;1055;-78
2023/10/19 12:50:27;;;;;;;;;;;;;;;16.19;100.00;99062.22;5046331;28;1272;-79
2023/10/19 12:52:53;;;;;;;;;;;;;;;16.16;100.00;99060.00;5056984;22;1708;-75
2023/10/19 12:55:18;;;;;;;;;;;;;;;16.11;100.00;99054.56;5058940;28;1190;-74
2023/10/19 12:57:43;;;;;;;;;;;;;;;16.07;100.00;99048.16;5056008;28;1233;-75